createdAt,value
2018-09-06T00:00:22.619Z,70.18
2018-09-06T00:02:09.994Z,70.33
2018-09-06T00:03:46.194Z,70.37
2018-09-06T00:05:21.496Z,70.82
2018-09-06T00:06:56.753Z,70.63
2018-09-06T00:08:32.573Z,70.22
2018-09-06T00:10:08.450Z,70.46
2018-09-06T00:11:44.056Z,70.21
2018-09-06T00:13:19.929Z,70.26
2018-09-06T00:14:55.148Z,70.53
2018-09-06T00:16:30.738Z,69.98
2018-09-06T00:18:06.383Z,70.40
2018-09-06T00:19:41.471Z,70.21
2018-09-06T00:21:16.646Z,70.38
2018-09-06T00:22:51.913Z,69.99
2018-09-06T00:24:27.855Z,70.27
2018-09-06T00:26:02.970Z,70.23
2018-09-06T00:27:39.076Z,70.52
2018-09-06T00:29:14.726Z,70.36
2018-09-06T00:30:51.223Z,70.68
2018-09-06T00:32:27.604Z,70.61
2018-09-06T00:34:03.071Z,70.71
2018-09-06T00:35:40.798Z,71.13
2018-09-06T00:37:16.253Z,70.80
2018-09-06T00:38:52.658Z,71.57
2018-09-06T00:41:31.286Z,71.43
2018-09-06T00:43:06.302Z,70.75
2018-09-06T00:44:44.114Z,71.12
2018-09-06T00:46:20.351Z,71.41
2018-09-06T00:47:56.111Z,71.47
2018-09-06T00:49:31.827Z,71.94
2018-09-06T00:51:07.121Z,71.60
2018-09-06T00:52:42.296Z,71.85
2018-09-06T00:54:17.968Z,71.61
2018-09-06T00:55:53.798Z,71.83
2018-09-06T00:57:29.722Z,71.57
2018-09-06T00:59:05.383Z,72.09
2018-09-06T01:00:40.684Z,71.96
2018-09-06T01:02:16.603Z,72.29
2018-09-06T01:03:52.031Z,72.45
2018-09-06T01:05:27.082Z,72.54
2018-09-06T01:07:02.198Z,72.19
2018-09-06T01:08:37.772Z,72.32
2018-09-06T01:10:13.342Z,72.64
2018-09-06T01:11:48.820Z,72.63
2018-09-06T01:13:23.818Z,72.40
2018-09-06T01:14:59.129Z,72.58
2018-09-06T01:16:34.629Z,72.87
2018-09-06T01:18:09.701Z,72.57
2018-09-06T01:19:44.896Z,72.94
2018-09-06T01:21:20.349Z,73.31
2018-09-06T01:22:56.804Z,73.15
2018-09-06T01:24:32.247Z,73.62
2018-09-06T01:26:07.440Z,73.69
2018-09-06T01:27:42.744Z,74.11
2018-09-06T01:29:17.982Z,73.93
2018-09-06T01:30:53.257Z,73.58
2018-09-06T01:32:29.087Z,73.94
2018-09-06T01:34:04.247Z,73.61
2018-09-06T01:35:45.562Z,73.67
2018-09-06T01:37:20.635Z,74.34
2018-09-06T01:38:56.597Z,74.23
2018-09-06T01:40:32.049Z,74.21
2018-09-06T01:42:07.700Z,74.09
2018-09-06T01:43:42.887Z,75.02
2018-09-06T01:45:17.875Z,74.69
2018-09-06T01:46:53.793Z,74.52
2018-09-06T01:48:29.048Z,74.98
2018-09-06T01:50:04.372Z,74.82
2018-09-06T01:51:39.664Z,74.38
2018-09-06T01:53:14.615Z,75.03
2018-09-06T01:54:49.976Z,75.53
2018-09-06T01:56:25.096Z,74.61
2018-09-06T01:58:00.315Z,75.25
2018-09-06T01:59:40.740Z,75.03
2018-09-06T02:01:15.720Z,75.58
2018-09-06T02:02:51.128Z,75.27
2018-09-06T02:04:26.219Z,75.25
2018-09-06T02:06:01.491Z,75.84
2018-09-06T02:07:36.413Z,76.02
2018-09-06T02:09:11.901Z,76.31
2018-09-06T02:10:47.149Z,75.83
2018-09-06T02:12:22.137Z,76.10
2018-09-06T02:13:57.443Z,75.89
2018-09-06T02:15:32.732Z,75.54
2018-09-06T02:17:08.260Z,76.30
2018-09-06T02:18:43.455Z,75.81
2018-09-06T02:20:18.565Z,76.42
2018-09-06T02:21:53.684Z,75.85
2018-09-06T02:23:28.770Z,76.65
2018-09-06T02:25:04.313Z,76.32
2018-09-06T02:26:39.264Z,76.38
2018-09-06T02:28:14.372Z,76.25
2018-09-06T02:29:50.398Z,75.76
2018-09-06T02:31:25.444Z,76.04
2018-09-06T02:33:00.832Z,76.04
2018-09-06T02:34:35.856Z,77.00
2018-09-06T02:36:11.098Z,75.94
2018-09-06T02:37:46.365Z,76.49
2018-09-06T02:39:21.741Z,76.05
2018-09-06T02:40:57.582Z,76.60
2018-09-06T02:42:32.753Z,75.73
2018-09-06T02:44:07.948Z,76.34
2018-09-06T02:45:44.275Z,76.84
2018-09-06T02:47:19.333Z,76.69
2018-09-06T02:48:54.549Z,76.56
2018-09-06T02:50:34.480Z,76.83
2018-09-06T02:52:09.473Z,76.89
2018-09-06T02:53:44.528Z,76.59
2018-09-06T02:55:19.524Z,76.98
2018-09-06T02:56:55.189Z,76.81
2018-09-06T02:58:31.746Z,76.82
2018-09-06T03:00:14.308Z,76.66
2018-09-06T03:01:49.889Z,77.66
2018-09-06T03:03:25.176Z,76.85
2018-09-06T03:05:00.767Z,77.01
2018-09-06T03:06:37.916Z,77.25
2018-09-06T03:08:13.416Z,77.91
2018-09-06T03:09:49.111Z,77.84
2018-09-06T03:11:27.283Z,78.09
2018-09-06T03:13:02.891Z,78.40
2018-09-06T03:14:39.121Z,77.66
2018-09-06T03:16:14.939Z,78.63
2018-09-06T03:17:51.724Z,78.18
2018-09-06T03:19:27.782Z,78.21
2018-09-06T03:21:02.694Z,78.21
2018-09-06T03:22:37.788Z,79.21
2018-09-06T03:24:12.806Z,79.40
2018-09-06T03:25:48.281Z,79.54
2018-09-06T03:27:23.932Z,79.26
2018-09-06T03:28:59.130Z,78.91
2018-09-06T03:30:34.355Z,79.37
2018-09-06T03:32:09.852Z,78.99
2018-09-06T03:33:45.215Z,80.13
2018-09-06T03:35:20.750Z,79.49
2018-09-06T03:36:55.730Z,79.75
2018-09-06T03:38:30.868Z,79.86
2018-09-06T03:40:06.165Z,80.31
2018-09-06T03:41:41.227Z,80.48
2018-09-06T03:43:16.694Z,80.61
2018-09-06T03:44:51.941Z,80.14
2018-09-06T03:46:27.287Z,80.63
2018-09-06T03:48:03.167Z,80.41
2018-09-06T03:49:38.644Z,81.27
2018-09-06T03:51:14.445Z,80.95
2018-09-06T03:52:49.495Z,81.15
2018-09-06T03:54:24.757Z,80.96
2018-09-06T03:56:00.428Z,80.84
2018-09-06T03:57:36.488Z,81.47
2018-09-06T03:59:12.048Z,81.44
2018-09-06T04:00:47.488Z,81.38
2018-09-06T04:02:23.727Z,81.06
2018-09-06T04:03:59.572Z,81.29
2018-09-06T04:05:34.734Z,80.75
2018-09-06T04:07:10.465Z,80.84
2018-09-06T04:08:52.125Z,81.30
2018-09-06T04:10:27.588Z,81.37
2018-09-06T04:12:02.775Z,81.56
2018-09-06T04:13:39.918Z,81.29
2018-09-06T04:15:18.032Z,81.14
2018-09-06T04:16:55.040Z,81.83
2018-09-06T04:18:31.866Z,81.68
2018-09-06T04:20:07.892Z,81.82
2018-09-06T04:21:51.189Z,81.56
2018-09-06T04:23:26.759Z,80.92
2018-09-06T04:25:01.937Z,81.46
2018-09-06T04:26:37.726Z,81.32
2018-09-06T04:28:13.453Z,81.12
2018-09-06T04:29:48.897Z,80.54
2018-09-06T04:31:24.118Z,81.42
2018-09-06T04:32:59.156Z,80.90
2018-09-06T04:34:34.334Z,81.04
2018-09-06T04:36:09.823Z,81.07
2018-09-06T04:37:45.198Z,81.21
2018-09-06T04:39:20.615Z,80.37
2018-09-06T04:40:56.415Z,80.63
2018-09-06T04:42:32.993Z,81.04
2018-09-06T04:44:08.216Z,80.93
2018-09-06T04:45:44.444Z,81.26
2018-09-06T04:47:20.635Z,80.97
2018-09-06T04:48:55.772Z,81.04
2018-09-06T04:50:31.134Z,81.37
2018-09-06T04:52:06.888Z,80.44
2018-09-06T04:53:42.555Z,80.91
2018-09-06T04:55:18.432Z,80.88
2018-09-06T04:56:53.685Z,80.51
2018-09-06T04:58:30.081Z,80.88
2018-09-06T05:00:06.892Z,81.60
2018-09-06T05:01:42.990Z,80.78
2018-09-06T05:03:19.049Z,80.96
2018-09-06T05:04:54.554Z,81.63
2018-09-06T05:06:30.874Z,81.11
2018-09-06T05:08:21.542Z,81.00
2018-09-06T05:09:56.997Z,81.08
2018-09-06T05:11:36.774Z,81.40
2018-09-06T05:13:12.271Z,81.26
2018-09-06T05:14:48.922Z,82.00
2018-09-06T05:16:26.785Z,82.05
2018-09-06T05:18:03.963Z,81.16
2018-09-06T05:19:40.939Z,81.45
2018-09-06T05:21:23.774Z,81.64
2018-09-06T05:23:21.636Z,81.60
2018-09-06T05:24:58.393Z,81.39
2018-09-06T05:26:39.203Z,80.91
2018-09-06T05:28:15.444Z,81.30
2018-09-06T05:29:51.571Z,80.92
2018-09-06T05:31:27.735Z,80.66
2018-09-06T05:33:05.851Z,80.42
2018-09-06T05:34:43.851Z,80.08
2018-09-06T05:36:21.611Z,79.72
2018-09-06T05:37:57.432Z,79.91
2018-09-06T05:39:34.951Z,79.61
2018-09-06T05:41:13.549Z,78.94
2018-09-06T05:42:50.844Z,78.84
2018-09-06T05:44:27.306Z,78.82
2018-09-06T05:46:04.151Z,78.54
2018-09-06T05:47:42.616Z,78.41
2018-09-06T05:49:18.997Z,78.70
2018-09-06T05:50:56.113Z,78.08
2018-09-06T05:52:33.802Z,77.98
2018-09-06T05:54:10.674Z,77.47
2018-09-06T05:55:48.952Z,77.58
2018-09-06T05:57:24.740Z,77.47
2018-09-06T05:59:00.431Z,76.79
2018-09-06T06:00:42.127Z,77.37
2018-09-06T06:02:18.165Z,77.01
2018-09-06T06:03:54.562Z,76.49
2018-09-06T06:05:30.306Z,76.28
2018-09-06T06:07:14.558Z,76.60
2018-09-06T06:08:51.163Z,76.69
2018-09-06T06:10:26.842Z,76.25
2018-09-06T06:12:02.915Z,75.33
2018-09-06T06:13:40.649Z,75.49
2018-09-06T06:15:18.794Z,74.41
2018-09-06T06:16:54.619Z,74.92
2018-09-06T06:18:30.099Z,73.93
2018-09-06T06:20:06.415Z,73.73
2018-09-06T06:21:44.474Z,73.46
2018-09-06T06:23:21.731Z,73.04
2018-09-06T06:24:58.451Z,73.26
2018-09-06T06:26:37.614Z,73.89
2018-09-06T06:28:16.274Z,72.38
2018-09-06T06:29:52.895Z,73.22
2018-09-06T06:31:31.359Z,72.67
2018-09-06T06:33:07.046Z,73.33
2018-09-06T06:34:45.901Z,72.94
2018-09-06T06:36:22.269Z,72.84
2018-09-06T06:37:59.002Z,72.04
2018-09-06T06:39:34.530Z,72.53
2018-09-06T06:41:09.777Z,72.89
2018-09-06T06:42:45.293Z,72.67
2018-09-06T06:44:21.085Z,72.42
2018-09-06T06:45:56.373Z,72.58
2018-09-06T06:47:32.327Z,72.69
2018-09-06T06:49:11.343Z,72.45
2018-09-06T06:50:52.014Z,72.26
2018-09-06T06:52:33.687Z,72.37
2018-09-06T06:54:11.630Z,72.01
2018-09-06T06:55:49.218Z,72.01
2018-09-06T06:57:26.196Z,71.47
2018-09-06T06:59:01.571Z,71.54
2018-09-06T07:00:40.413Z,72.25
2018-09-06T07:02:17.608Z,72.17
2018-09-06T07:03:52.740Z,71.31
2018-09-06T07:05:28.290Z,71.60
2018-09-06T07:07:04.322Z,71.46
2018-09-06T07:08:39.702Z,71.85
2018-09-06T07:10:16.417Z,72.60
2018-09-06T07:11:52.589Z,72.46
2018-09-06T07:13:28.310Z,72.38
2018-09-06T07:15:05.359Z,72.38
2018-09-06T07:16:41.347Z,71.50
2018-09-06T07:18:18.587Z,71.42
2018-09-06T07:19:54.199Z,71.55
2018-09-06T07:21:29.585Z,71.25
2018-09-06T07:23:06.736Z,71.71
2018-09-06T07:24:42.054Z,72.13
2018-09-06T07:26:18.360Z,71.98
2018-09-06T07:27:55.168Z,70.27
2018-09-06T07:29:33.226Z,71.19
2018-09-06T07:31:12.970Z,70.65
2018-09-06T07:32:49.360Z,70.32
2018-09-06T07:34:26.986Z,71.12
2018-09-06T07:36:06.428Z,71.18
2018-09-06T07:37:42.162Z,70.29
2018-09-06T07:39:17.835Z,70.15
2018-09-06T07:40:53.512Z,70.42
2018-09-06T07:42:30.908Z,70.58
2018-09-06T07:44:06.656Z,69.58
2018-09-06T07:45:42.105Z,70.77
2018-09-06T07:47:19.343Z,69.53
2018-09-06T07:48:57.805Z,69.95
2018-09-06T07:50:32.930Z,70.80
2018-09-06T07:52:10.512Z,70.38
2018-09-06T07:53:47.599Z,69.46
2018-09-06T07:55:31.230Z,70.08
2018-09-06T07:57:08.296Z,69.58
2018-09-06T07:58:52.560Z,70.19
2018-09-06T08:00:29.436Z,69.67
2018-09-06T08:02:04.699Z,69.91
2018-09-06T08:03:41.086Z,70.61
2018-09-06T08:05:16.143Z,71.02
2018-09-06T08:06:52.783Z,71.17
2018-09-06T08:08:28.328Z,70.14
2018-09-06T08:10:03.742Z,70.98
2018-09-06T08:11:41.247Z,71.28
2018-09-06T08:13:19.438Z,70.72
2018-09-06T08:14:56.426Z,71.87
2018-09-06T08:16:32.092Z,71.24
2018-09-06T08:18:09.230Z,72.45
2018-09-06T08:19:48.928Z,72.17
2018-09-06T08:21:25.729Z,72.56
2018-09-06T08:23:01.542Z,72.73
2018-09-06T08:24:38.556Z,73.23
2018-09-06T08:26:15.286Z,73.84
2018-09-06T08:27:50.833Z,73.76
2018-09-06T08:29:27.369Z,73.95
2018-09-06T08:31:03.472Z,74.24
2018-09-06T08:32:42.226Z,74.21
2018-09-06T08:34:19.998Z,74.50
2018-09-06T08:35:56.263Z,74.78
2018-09-06T08:37:32.076Z,75.14
2018-09-06T08:39:11.642Z,75.52
2018-09-06T08:40:47.446Z,75.49
2018-09-06T08:42:23.965Z,75.67
2018-09-06T08:43:59.584Z,76.51
2018-09-06T08:45:36.547Z,77.17
2018-09-06T08:47:12.788Z,76.11
2018-09-06T08:48:49.463Z,77.72
2018-09-06T08:50:24.438Z,76.67
2018-09-06T08:52:01.735Z,76.91
2018-09-06T08:53:37.245Z,77.17
2018-09-06T08:55:13.000Z,77.29
2018-09-06T08:56:50.469Z,77.74
2018-09-06T08:58:27.314Z,77.68
2018-09-06T09:00:06.008Z,78.62
2018-09-06T09:01:43.443Z,78.04
2018-09-06T09:03:23.939Z,78.84
2018-09-06T09:04:59.602Z,78.29
2018-09-06T09:06:35.431Z,78.50
2018-09-06T09:08:12.559Z,78.60
2018-09-06T09:09:48.113Z,78.99
2018-09-06T09:11:25.657Z,79.33
2018-09-06T09:13:03.138Z,78.30
2018-09-06T09:14:39.085Z,78.68
2018-09-06T09:16:14.954Z,79.39
2018-09-06T09:17:50.926Z,78.52
2018-09-06T09:19:27.164Z,79.30
2018-09-06T09:21:02.774Z,79.55
2018-09-06T09:22:40.110Z,79.75
2018-09-06T09:24:16.339Z,80.15
2018-09-06T09:25:52.673Z,80.27
2018-09-06T09:27:30.806Z,80.22
2018-09-06T09:29:05.995Z,80.99
2018-09-06T09:30:42.550Z,81.06
2018-09-06T09:32:17.886Z,82.05
2018-09-06T09:33:53.895Z,81.87
2018-09-06T09:35:29.250Z,82.27
2018-09-06T09:37:05.322Z,82.63
2018-09-06T09:38:42.897Z,82.04
2018-09-06T09:40:20.527Z,83.13
2018-09-06T09:41:55.701Z,82.67
2018-09-06T09:43:31.983Z,83.13
2018-09-06T09:45:12.612Z,83.64
2018-09-06T09:48:22.806Z,83.79
2018-09-06T09:49:59.297Z,84.31
2018-09-06T09:51:34.896Z,84.65
2018-09-06T09:53:11.355Z,85.11
2018-09-06T09:54:47.381Z,85.19
2018-09-06T09:56:24.261Z,85.15
2018-09-06T09:57:59.747Z,85.15
2018-09-06T09:59:36.499Z,85.69
2018-09-06T10:02:48.763Z,85.53
2018-09-06T10:04:30.689Z,85.60
2018-09-06T10:08:20.029Z,85.67
2018-09-06T10:09:58.930Z,85.92
2018-09-06T10:11:35.942Z,86.62
2018-09-06T10:13:13.656Z,86.53
2018-09-06T10:14:52.046Z,86.91
2018-09-06T10:16:28.743Z,86.60
2018-09-06T10:18:06.397Z,86.74
2018-09-06T10:21:28.841Z,86.64
2018-09-06T10:23:05.494Z,86.70
2018-09-06T10:24:41.689Z,86.39
2018-09-06T10:26:18.871Z,86.95
2018-09-06T10:27:56.867Z,86.76
2018-09-06T10:29:46.171Z,86.65
2018-09-06T10:31:23.344Z,86.36
2018-09-06T10:32:59.532Z,86.30
2018-09-06T10:34:37.433Z,86.46
2018-09-06T10:36:14.677Z,87.09
2018-09-06T10:37:53.234Z,86.24
2018-09-06T10:39:38.631Z,85.93
2018-09-06T10:41:14.912Z,85.45
2018-09-06T10:42:51.317Z,86.06
2018-09-06T10:44:33.591Z,85.99
2018-09-06T10:46:17.287Z,85.79
2018-09-06T10:47:57.066Z,84.34
2018-09-06T10:49:35.309Z,84.82
2018-09-06T10:51:14.163Z,84.09
2018-09-06T10:52:56.183Z,85.34
2018-09-06T10:54:35.632Z,85.26
2018-09-06T10:56:11.898Z,84.25
2018-09-06T10:57:47.917Z,84.81
2018-09-06T10:59:23.387Z,83.59
2018-09-06T11:01:05.348Z,83.47
2018-09-06T11:02:44.173Z,83.33
2018-09-06T11:04:20.008Z,82.96
2018-09-06T11:05:56.579Z,82.47
2018-09-06T11:07:35.221Z,82.10
2018-09-06T11:09:12.700Z,82.74
2018-09-06T11:10:49.457Z,82.00
2018-09-06T11:12:26.515Z,81.84
2018-09-06T11:14:03.492Z,82.16
2018-09-06T11:15:41.428Z,83.09
2018-09-06T11:17:19.508Z,83.45
2018-09-06T11:18:56.094Z,83.12
2018-09-06T11:20:32.094Z,82.86
2018-09-06T11:22:10.765Z,82.11
2018-09-06T11:23:47.087Z,83.00
2018-09-06T11:25:27.691Z,82.25
2018-09-06T11:27:03.928Z,83.26
2018-09-06T11:28:39.870Z,83.42
2018-09-06T11:30:17.857Z,82.27
2018-09-06T11:31:55.577Z,83.39
2018-09-06T11:33:37.080Z,82.03
2018-09-06T11:35:13.624Z,83.10
2018-09-06T11:36:51.040Z,81.52
2018-09-06T11:38:27.056Z,81.79
2018-09-06T11:40:03.883Z,81.40
2018-09-06T11:41:39.848Z,80.98
2018-09-06T11:43:16.771Z,80.81
2018-09-06T11:44:53.588Z,81.24
2018-09-06T11:46:31.584Z,80.93
2018-09-06T11:48:14.601Z,79.75
2018-09-06T11:49:49.794Z,78.73
2018-09-06T11:51:25.313Z,78.45
2018-09-06T11:53:00.554Z,77.80
2018-09-06T11:54:36.362Z,77.80
2018-09-06T11:56:12.816Z,77.26
2018-09-06T11:57:49.099Z,78.27
2018-09-06T11:59:25.522Z,77.64
2018-09-06T12:01:00.810Z,76.60
2018-09-06T12:02:37.184Z,76.77
2018-09-06T12:04:12.479Z,76.59
2018-09-06T12:05:49.274Z,76.08
2018-09-06T12:07:27.706Z,77.06
2018-09-06T12:09:04.957Z,75.99
2018-09-06T12:10:40.598Z,75.64
2018-09-06T12:12:16.283Z,74.71
2018-09-06T12:13:52.710Z,76.28
2018-09-06T12:15:28.345Z,75.36
2018-09-06T12:17:08.057Z,75.33
2018-09-06T12:18:45.278Z,73.67
2018-09-06T12:20:21.128Z,73.68
2018-09-06T12:21:57.616Z,72.93
2018-09-06T12:23:34.777Z,72.37
2018-09-06T12:25:13.593Z,72.06
2018-09-06T12:26:50.620Z,72.82
2018-09-06T12:28:26.981Z,72.37
2018-09-06T12:30:06.931Z,72.09
2018-09-06T12:31:42.334Z,71.73
2018-09-06T12:33:21.410Z,71.80
2018-09-06T12:34:57.335Z,71.43
2018-09-06T12:36:33.044Z,73.03
2018-09-06T12:38:08.693Z,73.16
2018-09-06T12:39:45.333Z,73.76
2018-09-06T12:41:20.773Z,75.14
2018-09-06T12:42:57.848Z,75.46
2018-09-06T12:44:34.045Z,74.87
2018-09-06T12:46:10.552Z,75.20
2018-09-06T12:47:55.938Z,75.26
2018-09-06T12:49:32.744Z,74.78
2018-09-06T12:51:10.030Z,74.66
2018-09-06T12:52:46.507Z,75.85
2018-09-06T12:54:22.555Z,75.44
2018-09-06T12:55:59.009Z,75.08
2018-09-06T12:57:35.649Z,75.18
2018-09-06T12:59:11.770Z,74.51
2018-09-06T13:00:47.359Z,75.92
2018-09-06T13:02:23.726Z,75.57
2018-09-06T13:04:00.458Z,76.11
2018-09-06T13:05:37.688Z,76.02
2018-09-06T13:07:12.820Z,75.88
2018-09-06T13:08:52.120Z,75.44
2018-09-06T13:10:29.493Z,75.87
2018-09-06T13:12:04.974Z,76.37
2018-09-06T13:13:40.504Z,75.81
2018-09-06T13:15:28.390Z,76.29
2018-09-06T13:17:07.766Z,76.01
2018-09-06T13:18:49.300Z,75.57
2018-09-06T13:20:26.855Z,75.04
2018-09-06T13:22:01.738Z,75.81
2018-09-06T13:23:37.436Z,76.18
2018-09-06T13:25:12.695Z,75.95
2018-09-06T13:26:52.641Z,74.90
2018-09-06T13:28:28.418Z,76.23
2018-09-06T13:30:07.923Z,76.17
2018-09-06T13:31:48.553Z,76.37
2018-09-06T13:33:25.810Z,75.91
2018-09-06T13:35:01.513Z,75.88
2018-09-06T13:36:42.054Z,76.11
2018-09-06T13:38:18.258Z,75.80
2018-09-06T13:39:54.689Z,74.96
2018-09-06T13:41:32.528Z,75.72
2018-09-06T13:43:09.823Z,75.49
2018-09-06T13:44:47.547Z,75.24
2018-09-06T13:46:25.409Z,75.29
2018-09-06T13:48:01.309Z,74.11
2018-09-06T13:49:45.112Z,74.06
2018-09-06T13:51:24.273Z,73.50
2018-09-06T13:53:00.945Z,73.97
2018-09-06T13:54:43.293Z,73.41
2018-09-06T13:56:19.890Z,73.72
2018-09-06T13:57:56.421Z,72.08
2018-09-06T13:59:31.727Z,72.49
2018-09-06T14:01:08.613Z,72.61
2018-09-06T14:02:43.884Z,72.00
2018-09-06T14:04:23.503Z,71.75
2018-09-06T14:05:59.564Z,71.77
2018-09-06T14:07:35.225Z,71.81
2018-09-06T14:09:11.347Z,71.69
2018-09-06T14:10:48.895Z,71.32
2018-09-06T14:12:27.854Z,71.65
2018-09-06T14:14:04.613Z,71.42
2018-09-06T14:15:42.179Z,70.26
2018-09-06T14:17:23.621Z,70.66
2018-09-06T14:19:02.687Z,69.55
2018-09-06T14:20:41.545Z,70.04
2018-09-06T14:22:19.660Z,69.52
2018-09-06T14:24:01.572Z,69.28
2018-09-06T14:25:43.079Z,68.78
2018-09-06T14:27:19.931Z,69.59
2018-09-06T14:28:57.633Z,68.42
2018-09-06T14:30:37.394Z,68.35
2018-09-06T14:32:23.365Z,68.26
2018-09-06T14:34:01.427Z,68.67
2018-09-06T14:35:43.953Z,68.40
2018-09-06T14:37:22.921Z,68.00
2018-09-06T14:40:43.489Z,69.22
2018-09-06T14:42:23.633Z,68.67
2018-09-06T14:44:01.626Z,69.27
2018-09-06T14:45:38.671Z,68.99
2018-09-06T14:47:16.956Z,70.43
2018-09-06T14:48:56.339Z,70.44
2018-09-06T14:50:40.372Z,70.57
2018-09-06T14:52:16.474Z,70.97
2018-09-06T14:53:54.296Z,71.43
2018-09-06T14:55:32.238Z,71.95
2018-09-06T14:57:09.580Z,71.56
2018-09-06T14:58:46.955Z,72.55
2018-09-06T15:00:24.763Z,72.70
2018-09-06T15:02:03.759Z,72.83
2018-09-06T15:03:44.809Z,72.85
2018-09-06T15:05:22.185Z,73.80
2018-09-06T15:07:00.873Z,74.10
2018-09-06T15:08:41.690Z,74.11
2018-09-06T15:10:18.044Z,73.84
2018-09-06T15:11:54.426Z,74.19
2018-09-06T15:13:31.191Z,75.17
2018-09-06T15:15:11.031Z,75.06
2018-09-06T15:16:51.251Z,75.87
2018-09-06T15:18:27.033Z,76.46
2018-09-06T15:20:09.621Z,75.68
2018-09-06T15:21:45.936Z,76.53
2018-09-06T15:23:22.845Z,76.72
2018-09-06T15:24:59.498Z,76.17
2018-09-06T15:26:36.735Z,76.98
2018-09-06T15:28:14.822Z,76.59
2018-09-06T15:29:52.670Z,76.97
2018-09-06T15:31:35.339Z,77.12
2018-09-06T15:33:14.191Z,78.26
2018-09-06T15:34:55.298Z,78.66
2018-09-06T15:36:31.429Z,78.65
2018-09-06T15:38:08.644Z,78.05
2018-09-06T15:39:46.138Z,79.04
2018-09-06T15:41:23.097Z,79.79
2018-09-06T15:43:01.493Z,79.41
2018-09-06T15:44:40.369Z,79.58
2018-09-06T15:46:24.293Z,79.76
2018-09-06T15:48:01.726Z,81.10
2018-09-06T15:49:37.708Z,80.88
2018-09-06T15:51:16.300Z,80.28
2018-09-06T15:52:53.081Z,80.37
2018-09-06T15:54:30.507Z,81.30
2018-09-06T15:56:07.828Z,80.14
2018-09-06T15:57:49.571Z,81.49
2018-09-06T15:59:36.977Z,81.15
2018-09-06T16:01:15.951Z,81.09
2018-09-06T16:02:51.195Z,81.13
2018-09-06T16:04:35.679Z,81.22
2018-09-06T16:06:11.981Z,80.31
2018-09-06T16:07:47.600Z,80.62
2018-09-06T16:09:23.917Z,81.08
2018-09-06T16:11:02.531Z,80.46
2018-09-06T16:12:40.738Z,80.33
2018-09-06T16:14:17.980Z,81.10
2018-09-06T16:16:00.258Z,80.69
2018-09-06T16:17:38.821Z,80.43
2018-09-06T16:19:14.381Z,81.29
2018-09-06T16:20:50.716Z,80.83
2018-09-06T16:22:28.829Z,80.84
2018-09-06T16:24:08.134Z,80.55
2018-09-06T16:25:51.105Z,80.76
2018-09-06T16:27:31.015Z,80.76
2018-09-06T16:29:10.410Z,80.01
2018-09-06T16:30:46.956Z,79.88
2018-09-06T16:32:25.306Z,80.02
2018-09-06T16:34:01.909Z,79.56
2018-09-06T16:35:39.386Z,80.70
2018-09-06T16:37:16.814Z,80.27
2018-09-06T16:38:53.698Z,80.47
2018-09-06T16:40:30.274Z,80.13
2018-09-06T16:42:06.776Z,80.52
2018-09-06T16:43:46.739Z,80.31
2018-09-06T16:45:25.697Z,80.50
2018-09-06T16:47:04.592Z,80.54
2018-09-06T16:48:41.042Z,79.80
2018-09-06T16:50:19.641Z,80.49
2018-09-06T16:52:03.228Z,79.92
2018-09-06T16:53:39.177Z,80.20
2018-09-06T16:55:17.298Z,81.00
2018-09-06T16:56:55.098Z,80.39
2018-09-06T16:58:40.544Z,81.27
2018-09-06T17:00:25.081Z,80.11
2018-09-06T17:02:02.013Z,81.10
2018-09-06T17:03:46.142Z,80.21
2018-09-06T17:07:05.270Z,80.29
2018-09-06T17:08:44.494Z,80.78
2018-09-06T17:10:29.997Z,81.25
2018-09-06T17:12:12.870Z,81.46
2018-09-06T17:13:50.170Z,80.45
2018-09-06T17:15:31.366Z,80.68
2018-09-06T17:17:07.782Z,81.02
2018-09-06T17:18:47.912Z,81.56
2018-09-06T17:20:25.775Z,81.26
2018-09-06T17:22:07.718Z,81.04
2018-09-06T17:23:44.700Z,81.44
2018-09-06T17:25:20.351Z,81.79
2018-09-06T17:27:00.008Z,82.00
2018-09-06T17:28:37.994Z,82.02
2018-09-06T17:30:16.104Z,81.84
2018-09-06T17:31:55.210Z,82.19
2018-09-06T17:33:34.554Z,82.81
2018-09-06T17:35:16.364Z,82.65
2018-09-06T17:36:57.433Z,82.22
2018-09-06T17:38:33.424Z,82.71
2018-09-06T17:40:10.038Z,83.12
2018-09-06T17:41:47.478Z,82.92
2018-09-06T17:43:27.057Z,83.35
2018-09-06T17:45:13.087Z,83.47
2018-09-06T17:46:50.688Z,83.24
2018-09-06T17:48:27.598Z,83.94
2018-09-06T17:50:07.931Z,83.65
2018-09-06T17:51:44.357Z,84.30
2018-09-06T17:53:35.476Z,84.28
2018-09-06T17:55:14.357Z,84.24
2018-09-06T17:56:52.585Z,83.71
2018-09-06T17:58:29.696Z,83.89
2018-09-06T18:00:08.730Z,84.19
2018-09-06T18:01:45.958Z,84.43
2018-09-06T18:03:22.289Z,84.28
2018-09-06T18:05:06.590Z,84.45
2018-09-06T18:06:43.630Z,84.88
2018-09-06T18:08:20.773Z,85.64
2018-09-06T18:09:57.289Z,85.37
2018-09-06T18:11:33.498Z,85.32
2018-09-06T18:13:15.159Z,85.24
2018-09-06T18:14:55.790Z,86.30
2018-09-06T18:16:33.162Z,85.71
2018-09-06T18:18:10.721Z,86.50
2018-09-06T18:19:47.692Z,86.87
2018-09-06T18:21:24.297Z,86.35
2018-09-06T18:23:01.253Z,86.63
2018-09-06T18:24:39.760Z,86.86
2018-09-06T18:26:16.120Z,86.49
2018-09-06T18:27:52.276Z,87.45
2018-09-06T18:29:28.188Z,87.12
2018-09-06T18:31:04.176Z,86.76
2018-09-06T18:32:41.291Z,86.81
2018-09-06T18:34:19.547Z,87.56
2018-09-06T18:35:58.517Z,87.58
2018-09-06T18:37:34.551Z,87.60
2018-09-06T18:39:10.879Z,87.72
2018-09-06T18:40:46.079Z,87.53
2018-09-06T18:42:22.175Z,87.85
2018-09-06T18:43:58.345Z,87.55
2018-09-06T18:45:36.895Z,87.98
2018-09-06T18:47:13.175Z,87.99
2018-09-06T18:48:49.220Z,88.73
2018-09-06T18:50:26.711Z,88.53
2018-09-06T18:52:02.635Z,88.35
2018-09-06T18:53:40.819Z,88.14
2018-09-06T18:57:04.750Z,88.58
2018-09-06T18:58:42.555Z,88.26
2018-09-06T19:00:25.863Z,88.88
2018-09-06T19:02:05.090Z,89.45
2018-09-06T19:03:43.422Z,89.39
2018-09-06T19:05:25.763Z,89.60
2018-09-06T19:07:05.873Z,89.57
2018-09-06T19:08:44.378Z,89.44
2018-09-06T19:10:22.974Z,89.34
2018-09-06T19:12:05.170Z,89.14
2018-09-06T19:13:44.955Z,89.43
2018-09-06T19:15:24.401Z,89.26
2018-09-06T19:17:03.010Z,89.08
2018-09-06T19:18:42.629Z,89.88
2018-09-06T19:20:20.022Z,89.92
2018-09-06T19:22:01.227Z,89.77
2018-09-06T19:23:44.275Z,90.00
2018-09-06T19:25:26.144Z,89.66
2018-09-06T19:27:04.605Z,89.50
2018-09-06T19:28:48.494Z,89.40
2018-09-06T19:30:25.910Z,89.09
2018-09-06T19:32:07.482Z,89.89
2018-09-06T19:33:45.527Z,89.27
2018-09-06T19:35:29.437Z,89.75
2018-09-06T19:38:20.034Z,89.37
2018-09-06T19:39:57.384Z,89.50
2018-09-06T19:41:39.048Z,89.90
2018-09-06T19:44:30.706Z,90.30
2018-09-06T19:46:10.693Z,90.31
2018-09-06T19:47:48.211Z,90.24
2018-09-06T19:49:27.574Z,90.64
2018-09-06T19:51:11.277Z,90.97
2018-09-06T19:52:48.821Z,91.01
2018-09-06T19:54:26.827Z,90.96
2018-09-06T19:56:19.052Z,91.11
2018-09-06T19:57:57.306Z,90.57
2018-09-06T19:59:37.626Z,90.61
2018-09-06T20:01:14.721Z,90.59
2018-09-06T20:02:53.931Z,90.96
2018-09-06T20:04:31.949Z,90.69
2018-09-06T20:06:09.714Z,91.04
2018-09-06T20:07:45.017Z,90.43
2018-09-06T20:09:21.402Z,91.41
2018-09-06T20:10:57.417Z,91.20
2018-09-06T20:12:36.620Z,91.32
2018-09-06T20:14:13.929Z,91.36
2018-09-06T20:15:49.557Z,91.38
2018-09-06T20:17:30.966Z,91.13
2018-09-06T20:19:10.838Z,91.49
2018-09-06T20:20:48.739Z,91.63
2018-09-06T20:22:26.443Z,91.76
2018-09-06T20:24:03.899Z,91.38
2018-09-06T20:25:39.256Z,91.12
2018-09-06T20:27:15.988Z,91.54
2018-09-06T20:28:54.857Z,91.31
2018-09-06T20:30:32.578Z,92.13
2018-09-06T20:32:08.208Z,92.33
2018-09-06T20:33:45.136Z,91.73
2018-09-06T20:35:27.277Z,91.99
2018-09-06T20:37:03.814Z,92.08
2018-09-06T20:38:40.947Z,92.00
2018-09-06T20:40:18.591Z,91.70
2018-09-06T20:42:01.517Z,92.27
2018-09-06T20:43:40.661Z,92.38
2018-09-06T20:45:18.580Z,91.61
2018-09-06T20:46:54.577Z,91.58
2018-09-06T20:48:35.599Z,91.86
2018-09-06T20:50:16.581Z,91.84
2018-09-06T20:51:54.736Z,91.47
2018-09-06T20:53:30.836Z,91.47
2018-09-06T20:55:09.312Z,91.69
2018-09-06T20:56:49.095Z,91.60
2018-09-06T20:58:25.446Z,91.88
2018-09-06T21:01:51.518Z,91.91
2018-09-06T21:03:28.042Z,91.90
2018-09-06T21:05:10.568Z,91.25
2018-09-06T21:06:48.597Z,91.27
2018-09-06T21:08:27.250Z,91.51
2018-09-06T21:10:06.846Z,92.01
2018-09-06T21:11:44.513Z,91.43